Time;durP1;ratioP1;P1;durP2;ratioP2;P2;SDS_P1;SDS_P2;PMS_P1;PMS_P2;Temp;Humidity;BMP_temperature;BMP_pressure;BME280_temperature;BME280_humidity;BME280_pressure;Samples;Min_cycle;Max_cycle;Signal;HPM_P1;HPM_P2
2023/03/25 00:02:49;;;;;;;3.45;1.13;;;6.90;99.90;;;;;;6225302;23;20062;-90
2023/03/25 00:05:38;;;;;;;2.08;1.00;;;6.60;1.00;;;;;;6245839;23;20438;-87
2023/03/25 00:08:26;;;;;;;1.08;1.00;;;6.40;99.90;;;;;;6247634;23;20331;-88
2023/03/25 00:11:13;;;;;;;2.35;1.30;;;6.40;99.90;;;;;;6247359;23;20031;-88
2023/03/25 00:14:00;;;;;;;2.67;1.05;;;6.50;99.90;;;;;;6245424;23;20046;-85
2023/03/25 00:16:57;;;;;;;4.20;1.17;;;6.50;1.00;;;;;;6248235;23;20028;-88
2023/03/25 00:19:44;;;;;;;6.50;1.70;;;6.60;1.00;;;;;;6247212;23;20101;-88
2023/03/25 00:22:35;;;;;;;6.43;1.73;;;6.80;99.90;;;;;;6247442;23;20023;-88
2023/03/25 00:25:23;;;;;;;2.45;1.48;;;6.70;99.90;;;;;;6248018;23;20083;-89
2023/03/25 00:28:14;;;;;;;4.45;1.50;;;6.80;99.90;;;;;;6224975;23;20074;-88
2023/03/25 00:31:14;;;;;;;4.10;1.60;;;6.70;1.00;;;;;;6245483;23;20028;-86
2023/03/25 00:34:02;;;;;;;5.03;1.30;;;6.70;99.90;;;;;;6223134;23;20028;-86
2023/03/25 00:36:52;;;;;;;3.83;1.63;;;6.70;99.90;;;;;;6251733;23;20055;-85
2023/03/25 00:39:42;;;;;;;5.18;1.48;;;6.60;99.90;;;;;;6251799;23;20017;-87
2023/03/25 00:42:29;;;;;;;5.65;1.60;;;6.70;99.90;;;;;;6247291;23;20039;-85
2023/03/25 00:45:16;;;;;;;4.72;1.58;;;6.70;93.90;;;;;;6244839;23;20052;-87
2023/03/25 00:48:04;;;;;;;5.45;1.60;;;6.70;1.00;;;;;;6247863;23;20087;-86
2023/03/25 00:50:53;;;;;;;5.45;1.40;;;6.60;99.90;;;;;;6248215;23;20467;-86
2023/03/25 00:53:40;;;;;;;4.82;1.70;;;6.50;1.00;;;;;;6246248;23;20024;-85
2023/03/25 00:56:31;;;;;;;5.60;1.58;;;6.40;99.90;;;;;;6246788;23;20038;-84
2023/03/25 00:59:18;;;;;;;4.35;1.40;;;6.40;99.90;;;;;;6248221;23;20103;-88
2023/03/25 01:02:05;;;;;;;6.95;2.05;;;6.30;99.90;;;;;;6244820;23;20420;-85
2023/03/25 01:04:56;;;;;;;5.72;1.70;;;6.30;99.90;;;;;;6245075;23;20655;-87
2023/03/25 01:07:44;;;;;;;3.15;1.23;;;6.30;99.90;;;;;;6244467;23;20024;-87
2023/03/25 01:10:33;;;;;;;5.20;1.40;;;6.30;99.90;;;;;;6246081;23;20027;-86
2023/03/25 01:13:22;;;;;;;5.03;1.70;;;6.20;99.90;;;;;;6246788;23;20024;-86
2023/03/25 01:16:10;;;;;;;5.07;1.63;;;6.20;1.00;;;;;;6247899;23;20412;-87
2023/03/25 01:19:00;;;;;;;5.50;1.90;;;6.20;99.90;;;;;;6245456;23;20043;-88
2023/03/25 01:21:47;;;;;;;7.70;1.17;;;6.20;99.90;;;;;;6247337;23;20028;-88
2023/03/25 01:24:39;;;;;;;5.88;1.30;;;6.10;99.90;;;;;;6253025;23;20074;-88
2023/03/25 01:27:26;;;;;;;2.70;1.35;;;6.10;1.00;;;;;;6231644;23;20081;-88
2023/03/25 01:30:14;;;;;;;6.13;1.60;;;6.20;99.90;;;;;;6248558;23;20078;-86
2023/03/25 01:33:02;;;;;;;3.92;1.38;;;6.20;99.90;;;;;;6248403;23;20035;-88
2023/03/25 01:35:49;;;;;;;5.43;1.50;;;6.30;99.90;;;;;;6249452;23;20020;-88
2023/03/25 01:38:37;;;;;;;3.78;1.20;;;6.30;99.90;;;;;;6248753;23;20043;-87
2023/03/25 01:41:26;;;;;;;4.05;1.35;;;6.30;99.90;;;;;;6252035;23;20023;-87
2023/03/25 01:44:28;;;;;;;4.53;1.35;;;6.30;96.00;;;;;;6253259;23;20024;-88
2023/03/25 01:47:16;;;;;;;4.78;1.52;;;6.30;99.90;;;;;;6255749;23;20020;-88
2023/03/25 01:50:07;;;;;;;2.50;1.33;;;6.20;99.90;;;;;;6257144;23;20024;-88
2023/03/25 01:53:00;;;;;;;6.85;1.60;;;6.30;1.00;;;;;;6256885;23;20070;-87
2023/03/25 01:55:51;;;;;;;7.50;2.03;;;6.30;99.90;;;;;;6257635;23;20047;-87
2023/03/25 01:58:42;;;;;;;4.13;1.60;;;6.30;1.00;;;;;;6258379;23;20083;-88
2023/03/25 02:01:31;;;;;;;2.45;1.40;;;6.20;1.00;;;;;;6257943;23;20101;-86
2023/03/25 02:04:33;;;;;;;2.95;1.55;;;6.20;1.00;;;;;;6255695;23;20028;-86
2023/03/25 02:07:21;;;;;;;3.42;1.52;;;6.20;99.90;;;;;;6264358;23;20047;-83
2023/03/25 02:10:10;;;;;;;5.57;1.45;;;6.10;99.90;;;;;;6267343;23;20107;-86
2023/03/25 02:12:58;;;;;;;3.75;1.38;;;6.10;99.90;;;;;;6270284;22;20039;-86
2023/03/25 02:16:02;;;;;;;4.28;1.58;;;6.10;1.00;;;;;;6263182;23;20024;-88
2023/03/25 02:19:20;;;;;;;3.25;1.55;;;6.10;99.90;;;;;;6241261;23;20412;-88
2023/03/25 02:22:42;;;;;;;4.03;1.60;;;6.10;99.90;;;;;;6253290;23;20043;-87
2023/03/25 02:26:15;;;;;;;1.58;1.48;;;6.10;99.90;;;;;;6211446;23;20304;-89
2023/03/25 02:29:12;;;;;;;7.20;1.52;;;6.10;1.00;;;;;;6243769;23;20024;-86
2023/03/25 02:32:48;;;;;;;3.70;1.35;;;6.20;99.90;;;;;;6253353;23;20020;-87
2023/03/25 02:35:58;;;;;;;4.25;1.58;;;6.20;99.90;;;;;;6250020;23;20024;-84
2023/03/25 02:39:17;;;;;;;5.75;1.50;;;6.30;99.90;;;;;;6231561;23;20027;-88
2023/03/25 02:42:15;;;;;;;4.55;1.40;;;6.30;1.00;;;;;;6249804;23;20028;-86
2023/03/25 02:45:19;;;;;;;1.83;1.13;;;6.30;1.00;;;;;;6246749;23;20052;-87
2023/03/25 02:48:20;;;;;;;4.10;1.30;;;6.20;1.00;;;;;;6249200;23;20031;-87
2023/03/25 02:51:16;;;;;;;3.53;1.15;;;6.10;99.90;;;;;;6252031;23;20090;-85
2023/03/25 02:54:10;;;;;;;3.03;1.15;;;5.90;99.90;;;;;;6248763;23;20035;-86
2023/03/25 02:57:01;;;;;;;1.58;0.98;;;5.70;20.20;;;;;;6248700;23;20028;-88
2023/03/25 02:59:52;;;;;;;1.73;1.15;;;5.50;99.90;;;;;;6231210;23;20120;-86
2023/03/25 03:02:52;;;;;;;4.07;1.20;;;5.40;99.90;;;;;;6256992;23;20020;-87
2023/03/25 03:05:43;;;;;;;0.88;0.88;;;5.40;99.90;;;;;;6248016;23;20105;-89
2023/03/25 03:08:44;;;;;;;1.47;0.90;;;5.20;99.90;;;;;;6224652;23;20024;-88
2023/03/25 03:12:07;;;;;;;1.50;1.00;;;5.10;1.00;;;;;;6248468;23;20028;-87
2023/03/25 03:14:59;;;;;;;1.92;0.90;;;5.00;99.90;;;;;;6245183;23;20024;-86
2023/03/25 03:17:59;;;;;;;1.10;1.00;;;5.00;99.90;;;;;;6244658;23;20039;-87
2023/03/25 03:21:05;;;;;;;1.90;0.80;;;5.00;1.00;;;;;;6247089;23;20024;-89
2023/03/25 03:24:04;;;;;;;4.30;1.05;;;5.00;1.00;;;;;;6224888;23;20047;-85
2023/03/25 03:26:57;;;;;;;0.93;0.82;;;5.00;99.90;;;;;;6222652;23;20028;-84
2023/03/25 03:29:51;;;;;;;1.75;1.00;;;5.10;1.00;;;;;;6245450;23;20024;-87
2023/03/25 03:33:08;;;;;;;0.88;0.80;;;5.10;99.90;;;;;;6224877;23;20032;-85
2023/03/25 03:36:16;;;;;;;1.08;0.88;;;5.10;99.90;;;;;;6245470;23;20032;-84
2023/03/25 03:39:09;;;;;;;1.33;0.80;;;5.10;99.90;;;;;;6245666;23;20099;-86
2023/03/25 03:42:21;;;;;;;1.20;1.00;;;5.10;99.90;;;;;;6244046;23;20024;-86
2023/03/25 03:45:16;;;;;;;3.60;1.20;;;5.10;1.00;;;;;;6242246;23;20028;-86
2023/03/25 03:48:11;;;;;;;1.80;0.90;;;5.10;99.70;;;;;;6228873;23;20725;-86
2023/03/25 03:51:06;;;;;;;1.95;0.80;;;5.10;99.90;;;;;;6250228;23;20020;-85
2023/03/25 03:54:10;;;;;;;2.25;0.80;;;5.10;99.90;;;;;;6227640;23;20024;-86
2023/03/25 03:57:09;;;;;;;1.13;0.73;;;5.10;99.90;;;;;;6245870;23;20020;-86
2023/03/25 04:00:17;;;;;;;2.00;0.82;;;5.00;99.90;;;;;;6246864;23;20042;-89
2023/03/25 04:03:06;;;;;;;0.93;0.75;;;5.00;99.90;;;;;;6245669;23;20028;-86
2023/03/25 04:06:06;;;;;;;1.45;0.80;;;4.90;99.90;;;;;;6248693;23;20024;-86
2023/03/25 04:09:04;;;;;;;1.80;0.90;;;4.90;99.90;;;;;;6247444;23;20035;-87
2023/03/25 04:12:13;;;;;;;3.05;0.90;;;4.90;1.00;;;;;;6247422;23;20028;-85
2023/03/25 04:15:05;;;;;;;2.30;0.98;;;5.00;1.00;;;;;;6247460;23;20082;-84
2023/03/25 04:17:54;;;;;;;2.03;0.98;;;5.00;56.70;;;;;;6244546;23;20134;-85
2023/03/25 04:20:48;;;;;;;2.90;1.30;;;5.10;99.90;;;;;;6248896;23;20028;-86
2023/03/25 04:23:36;;;;;;;0.93;0.93;;;5.10;99.90;;;;;;6248246;23;20047;-87
2023/03/25 04:26:23;;;;;;;2.50;1.10;;;5.10;99.90;;;;;;6246459;23;20024;-86
2023/03/25 04:29:12;;;;;;;6.00;0.90;;;5.10;99.90;;;;;;6246640;23;20083;-87
2023/03/25 04:32:02;;;;;;;3.10;1.10;;;5.10;99.90;;;;;;6248089;23;20023;-85
2023/03/25 04:34:56;;;;;;;3.63;1.48;;;5.10;99.90;;;;;;6246774;23;20024;-84
2023/03/25 04:37:47;;;;;;;3.63;1.60;;;5.10;99.90;;;;;;6238472;23;20024;-86
2023/03/25 04:40:39;;;;;;;4.55;1.48;;;5.10;99.90;;;;;;6247005;23;20023;-85
2023/03/25 04:43:27;;;;;;;6.50;1.30;;;5.10;1.00;;;;;;6247411;23;20046;-88
2023/03/25 04:46:18;;;;;;;7.53;1.30;;;5.10;1.00;;;;;;6246540;23;20020;-85
2023/03/25 04:49:12;;;;;;;3.78;1.35;;;5.20;1.00;;;;;;6246467;23;20032;-88
2023/03/25 04:52:03;;;;;;;4.03;1.48;;;5.30;99.90;;;;;;6247002;23;20024;-87
2023/03/25 04:54:50;;;;;;;4.55;1.40;;;5.30;1.00;;;;;;6246939;23;20043;-87
2023/03/25 04:57:40;;;;;;;5.15;1.40;;;5.20;30.10;;;;;;6247173;23;20070;-86
2023/03/25 05:00:27;;;;;;;4.72;1.30;;;5.30;1.00;;;;;;6223702;23;20382;-86
2023/03/25 05:03:23;;;;;;;5.30;1.73;;;5.20;99.90;;;;;;6245395;23;20035;-89
2023/03/25 05:06:11;;;;;;;5.30;1.92;;;5.20;99.90;;;;;;6247684;23;20027;-86
2023/03/25 05:09:00;;;;;;;3.28;1.40;;;5.10;1.00;;;;;;6246533;23;20024;-88
2023/03/25 05:11:49;;;;;;;5.63;1.63;;;5.00;99.90;;;;;;6247451;23;20094;-88
2023/03/25 05:14:38;;;;;;;5.50;1.60;;;4.90;1.00;;;;;;6246437;23;20749;-88
2023/03/25 05:17:28;;;;;;;11.30;1.75;;;5.00;99.90;;;;;;6225407;23;20031;-88
2023/03/25 05:20:18;;;;;;;3.58;1.67;;;5.10;99.90;;;;;;6226079;23;20031;-87
2023/03/25 05:23:11;;;;;;;2.25;1.33;;;5.20;99.90;;;;;;6247950;23;20028;-86
2023/03/25 05:25:58;;;;;;;7.93;1.70;;;5.30;1.00;;;;;;6256229;23;20047;-85
2023/03/25 05:28:50;;;;;;;8.30;2.03;;;5.50;99.90;;;;;;6246188;23;20127;-85
2023/03/25 05:31:47;;;;;;;5.22;1.98;;;5.50;99.90;;;;;;6252709;23;20351;-87
2023/03/25 05:34:34;;;;;;;9.10;1.90;;;5.50;99.90;;;;;;6252343;23;20024;-84
2023/03/25 05:37:22;;;;;;;7.88;1.50;;;5.60;99.90;;;;;;6247701;23;20046;-86
2023/03/25 05:40:09;;;;;;;6.13;1.40;;;5.60;99.90;;;;;;6230805;23;20050;-85
2023/03/25 05:43:02;;;;;;;12.95;2.35;;;5.70;1.00;;;;;;6253964;23;20020;-86
2023/03/25 05:45:49;;;;;;;2.95;1.38;;;5.80;1.00;;;;;;6258223;23;20428;-86
2023/03/25 05:48:36;;;;;;;5.32;1.58;;;5.70;99.90;;;;;;6248698;23;20091;-84
2023/03/25 05:51:27;;;;;;;7.50;1.70;;;5.80;99.90;;;;;;6249417;23;20023;-86
2023/03/25 05:54:14;;;;;;;5.18;1.52;;;5.80;99.90;;;;;;6246588;23;20032;-86
2023/03/25 05:57:02;;;;;;;5.88;1.40;;;5.80;95.40;;;;;;6245295;23;20371;-89
2023/03/25 05:59:50;;;;;;;5.18;1.50;;;5.90;1.00;;;;;;6247437;23;20024;-90
2023/03/25 06:02:38;;;;;;;7.15;1.70;;;5.80;1.00;;;;;;6226442;23;20028;-85
2023/03/25 06:05:28;;;;;;;5.40;1.90;;;5.90;1.00;;;;;;6246169;23;20047;-89
2023/03/25 06:08:16;;;;;;;6.65;1.80;;;5.90;30.50;;;;;;6244959;23;20042;-89
2023/03/25 06:11:03;;;;;;;9.13;2.22;;;5.80;1.00;;;;;;6248127;23;20043;-87
2023/03/25 06:13:53;;;;;;;5.53;1.95;;;5.90;99.90;;;;;;6256581;23;20035;-87
2023/03/25 06:16:42;;;;;;;6.32;1.63;;;5.90;1.00;;;;;;6245171;23;20031;-87
2023/03/25 06:19:29;;;;;;;9.18;1.85;;;6.00;1.00;;;;;;6245964;23;20043;-86
2023/03/25 06:22:20;;;;;;;7.25;1.77;;;6.00;99.90;;;;;;6245809;23;20032;-86
2023/03/25 06:25:16;;;;;;;3.92;1.55;;;6.10;99.90;;;;;;6245822;23;20034;-88
2023/03/25 06:28:03;;;;;;;7.85;2.53;;;6.10;99.90;;;;;;6225813;23;20477;-86
2023/03/25 06:30:53;;;;;;;3.47;1.60;;;6.10;69.50;;;;;;6225015;23;20024;-87
2023/03/25 06:33:42;;;;;;;5.35;1.98;;;6.20;99.90;;;;;;6248042;23;20028;-86
2023/03/25 06:36:30;;;;;;;7.05;1.60;;;6.30;1.00;;;;;;6247512;23;20039;-86
2023/03/25 06:39:18;;;;;;;6.53;1.45;;;6.40;1.00;;;;;;6246681;23;20054;-85
2023/03/25 06:42:06;;;;;;;3.42;1.35;;;6.50;99.90;;;;;;6252567;23;20024;-84
2023/03/25 06:44:54;;;;;;;4.15;1.40;;;6.50;99.90;;;;;;6249447;23;20095;-85
2023/03/25 06:47:44;;;;;;;5.35;1.52;;;6.60;99.90;;;;;;6225246;23;20466;-87
2023/03/25 06:50:32;;;;;;;4.28;1.48;;;6.50;99.90;;;;;;6247621;23;20079;-87
2023/03/25 06:53:19;;;;;;;3.42;1.35;;;6.70;99.90;;;;;;6250052;23;20035;-86
2023/03/25 06:56:07;;;;;;;6.47;1.48;;;6.70;99.90;;;;;;6250067;23;20056;-87
2023/03/25 06:58:54;;;;;;;3.83;1.42;;;6.80;13.90;;;;;;6252295;23;20032;-87
2023/03/25 07:01:52;;;;;;;7.82;1.52;;;6.90;1.00;;;;;;6246451;23;20059;-90
2023/03/25 07:04:43;;;;;;;3.05;1.40;;;7.10;1.00;;;;;;6249628;23;20028;-88
2023/03/25 07:07:30;;;;;;;5.43;2.75;;;7.20;1.00;;;;;;6227413;23;20098;-91
2023/03/25 07:10:17;;;;;;;5.95;1.38;;;7.50;99.90;;;;;;6229944;23;20119;-90
2023/03/25 07:13:05;;;;;;;3.75;1.30;;;7.60;99.90;;;;;;6230849;23;20031;-88
2023/03/25 07:15:57;;;;;;;2.42;1.02;;;7.40;99.90;;;;;;6247503;23;20020;-91
2023/03/25 07:18:45;;;;;;;2.65;1.15;;;7.30;99.90;;;;;;6226534;23;20034;-89
2023/03/25 07:21:32;;;;;;;3.42;1.10;;;7.20;99.90;;;;;;6244533;23;20406;-88
2023/03/25 07:24:19;;;;;;;1.77;1.00;;;7.20;99.90;;;;;;6245401;23;20024;-89
2023/03/25 07:27:11;;;;;;;1.60;1.10;;;7.50;99.90;;;;;;6245390;23;20024;-90
2023/03/25 07:29:58;;;;;;;4.17;1.43;;;7.50;99.90;;;;;;6246656;23;20078;-90
2023/03/25 07:32:46;;;;;;;1.88;1.13;;;7.40;99.90;;;;;;6247339;23;20126;-91
2023/03/25 07:35:36;;;;;;;2.97;1.35;;;7.30;99.90;;;;;;6247570;23;20034;-89
2023/03/25 07:38:23;;;;;;;3.15;1.30;;;7.10;99.90;;;;;;6225143;23;20038;-85
2023/03/25 07:41:12;;;;;;;5.13;1.60;;;6.90;99.90;;;;;;6247669;23;20114;-91
2023/03/25 07:43:59;;;;;;;5.60;1.42;;;6.90;99.90;;;;;;6224923;23;20093;-89
2023/03/25 07:46:49;;;;;;;3.67;1.25;;;7.20;99.90;;;;;;6249110;23;20020;-91
2023/03/25 07:49:50;;;;;;;3.95;0.90;;;7.70;99.90;;;;;;6253878;23;20303;-87
2023/03/25 07:52:38;;;;;;;2.38;1.10;;;8.00;99.90;;;;;;6249600;23;20121;-90
2023/03/25 07:55:28;;;;;;;2.42;1.08;;;8.10;34.80;;;;;;6248192;23;20030;-90
2023/03/25 07:58:16;;;;;;;3.95;0.90;;;8.40;1.00;;;;;;6228042;23;20028;-90
2023/03/25 08:01:05;;;;;;;3.50;1.08;;;8.50;1.00;;;;;;6245863;23;20087;-90
2023/03/25 08:04:16;;;;;;;3.53;1.27;;;8.80;1.00;;;;;;6231046;23;20016;-88
2023/03/25 08:07:04;;;;;;;4.57;1.10;;;8.20;99.90;;;;;;6248075;23;20067;-86
2023/03/25 08:09:53;;;;;;;1.55;1.00;;;8.50;99.90;;;;;;6248200;23;20035;-89
2023/03/25 08:12:43;;;;;;;1.88;0.98;;;8.50;99.90;;;;;;6226593;23;20043;-84
2023/03/25 08:15:30;;;;;;;2.70;1.10;;;8.30;99.90;;;;;;6247079;23;20567;-89
2023/03/25 08:18:18;;;;;;;2.83;1.33;;;8.10;1.00;;;;;;6247482;23;20035;-86
2023/03/25 08:21:05;;;;;;;1.80;0.82;;;7.50;1.00;;;;;;6246943;23;20020;-87
2023/03/25 08:23:57;;;;;;;1.42;0.90;;;7.20;99.90;;;;;;6246120;23;20077;-89
2023/03/25 08:26:44;;;;;;;2.88;1.23;;;6.80;99.90;;;;;;6247569;23;20032;-90
2023/03/25 08:29:33;;;;;;;1.33;0.95;;;6.60;1.00;;;;;;6247805;23;20025;-86
2023/03/25 08:32:20;;;;;;;5.90;1.10;;;6.50;99.90;;;;;;6245733;23;20028;-86
2023/03/25 08:35:08;;;;;;;4.22;1.10;;;6.50;99.90;;;;;;6245656;23;20114;-87
2023/03/25 08:37:55;;;;;;;1.88;1.10;;;6.70;99.90;;;;;;6260806;23;20035;-87
2023/03/25 08:40:43;;;;;;;4.10;1.20;;;6.80;99.90;;;;;;6247606;23;20078;-87
2023/03/25 08:43:30;;;;;;;8.60;1.13;;;6.80;1.00;;;;;;6246279;23;20027;-88
2023/03/25 08:46:18;;;;;;;2.35;0.95;;;6.90;65.10;;;;;;6226063;23;20031;-86
2023/03/25 08:49:05;;;;;;;1.95;0.90;;;6.90;1.00;;;;;;6250543;23;20075;-85
2023/03/25 08:51:52;;;;;;;2.50;0.90;;;6.90;23.50;;;;;;6226157;23;20050;-90
2023/03/25 08:54:39;;;;;;;1.98;1.02;;;6.70;60.90;;;;;;6224905;23;20078;-85
2023/03/25 08:57:27;;;;;;;1.30;0.95;;;6.70;94.90;;;;;;6249803;23;20059;-88
2023/03/25 09:00:15;;;;;;;5.75;1.10;;;6.60;1.00;;;;;;6255629;23;20058;-85
2023/03/25 09:03:06;;;;;;;3.05;1.10;;;6.60;1.00;;;;;;6241434;23;20028;-85
2023/03/25 09:05:54;;;;;;;6.07;1.58;;;6.70;99.90;;;;;;6261705;23;20269;-86
2023/03/25 09:08:44;;;;;;;4.72;1.50;;;6.90;99.90;;;;;;6261814;23;20020;-86
2023/03/25 09:11:36;;;;;;;4.32;1.42;;;7.20;99.90;;;;;;6264164;23;20016;-84
2023/03/25 09:14:24;;;;;;;4.72;1.20;;;7.30;99.90;;;;;;6268851;23;20038;-85
2023/03/25 09:17:14;;;;;;;2.05;1.00;;;7.50;1.00;;;;;;6246805;23;20036;-87
2023/03/25 09:20:02;;;;;;;5.90;1.45;;;7.30;1.00;;;;;;6259459;23;20020;-86
2023/03/25 09:22:49;;;;;;;4.22;1.20;;;7.30;1.00;;;;;;6255816;23;20247;-87
2023/03/25 09:25:37;;;;;;;7.30;1.30;;;7.60;99.90;;;;;;6262921;23;20096;-85
2023/03/25 09:28:24;;;;;;;4.25;1.45;;;7.70;99.90;;;;;;6256349;23;20076;-86
2023/03/25 09:31:11;;;;;;;4.57;1.80;;;7.50;1.00;;;;;;6248894;23;20032;-88
2023/03/25 09:34:00;;;;;;;4.72;1.25;;;7.40;99.90;;;;;;6246260;23;20043;-86
2023/03/25 09:36:50;;;;;;;4.60;1.38;;;7.40;1.00;;;;;;6247088;23;20103;-88
2023/03/25 09:39:40;;;;;;;3.80;1.35;;;7.40;99.90;;;;;;6247346;23;20042;-88
2023/03/25 09:42:46;;;;;;;5.57;2.85;;;7.40;1.00;;;;;;6252640;23;20020;-89
2023/03/25 09:45:41;;;;;;;3.47;1.40;;;7.30;1.00;;;;;;6246893;23;20423;-87
2023/03/25 09:48:47;;;;;;;4.80;1.40;;;7.30;1.00;;;;;;6248452;23;20032;-89
2023/03/25 09:51:40;;;;;;;1.80;1.08;;;7.30;99.90;;;;;;6224908;23;20532;-85
2023/03/25 09:54:39;;;;;;;4.38;1.20;;;7.50;1.00;;;;;;6247891;23;20099;-85
2023/03/25 09:57:30;;;;;;;3.13;1.40;;;7.90;99.90;;;;;;6245163;23;20077;-84
2023/03/25 10:00:24;;;;;;;3.35;1.13;;;8.40;50.00;;;;;;6246920;23;20035;-84
2023/03/25 10:03:42;;;;;;;4.70;1.10;;;8.10;99.90;;;;;;6245390;23;20292;-90
2023/03/25 10:06:41;;;;;;;6.55;2.33;;;7.80;96.70;;;;;;6243915;23;20043;-87
2023/03/25 10:10:03;;;;;;;3.22;1.45;;;7.50;85.80;;;;;;6245542;23;20031;-86
2023/03/25 10:13:10;;;;;;;3.25;1.13;;;7.80;1.00;;;;;;6214347;23;20020;-86
2023/03/25 10:16:17;;;;;;;3.75;1.10;;;8.30;1.00;;;;;;6252670;23;20020;-88
2023/03/25 10:19:31;;;;;;;2.45;1.20;;;9.20;15.30;;;;;;6224016;23;20499;-86
2023/03/25 10:22:29;;;;;;;2.05;0.75;;;9.80;99.90;;;;;;6224684;23;20095;-87
2023/03/25 10:25:24;;;;;;;1.95;0.80;;;9.80;99.90;;;;;;6244883;23;20023;-87
2023/03/25 10:28:20;;;;;;;2.60;0.95;;;10.40;99.90;;;;;;6226147;23;20111;-87
2023/03/25 10:31:15;;;;;;;1.80;1.15;;;10.60;1.00;;;;;;6225950;23;20028;-88
2023/03/25 10:34:15;;;;;;;2.50;0.85;;;10.90;99.90;;;;;;6247762;23;20024;-87
2023/03/25 10:37:11;;;;;;;0.85;0.70;;;11.20;99.90;;;;;;6248539;22;20554;-86
2023/03/25 10:40:23;;;;;;;2.63;1.55;;;11.00;99.90;;;;;;6244973;23;20113;-86
2023/03/25 10:43:26;;;;;;;2.03;0.77;;;11.20;99.90;;;;;;6225432;22;20028;-85
2023/03/25 10:46:36;;;;;;;2.25;1.00;;;10.60;90.90;;;;;;6226418;23;20034;-87
2023/03/25 10:49:29;;;;;;;4.00;1.08;;;9.90;50.50;;;;;;6245185;23;20046;-87
2023/03/25 10:52:21;;;;;;;2.40;0.80;;;9.70;99.90;;;;;;6243919;23;20028;-84
2023/03/25 10:55:27;;;;;;;3.88;0.95;;;9.30;99.90;;;;;;6223340;23;20035;-88
2023/03/25 10:58:17;;;;;;;1.30;1.00;;;8.80;99.90;;;;;;6223917;23;20419;-87
2023/03/25 11:01:17;;;;;;;4.68;1.48;;;8.20;1.00;;;;;;6246006;23;20372;-81
2023/03/25 11:04:07;;;;;;;1.73;1.00;;;7.90;99.90;;;;;;6252234;23;20024;-81
2023/03/25 11:06:58;;;;;;;2.70;1.00;;;8.30;1.00;;;;;;6245521;23;20031;-83
2023/03/25 11:09:48;;;;;;;2.28;0.93;;;9.10;99.90;;;;;;6222443;23;20028;-84
2023/03/25 11:12:38;;;;;;;3.92;1.00;;;9.80;99.90;;;;;;6244353;23;20032;-84
2023/03/25 11:15:33;;;;;;;4.65;1.40;;;9.80;1.00;;;;;;6246145;23;20028;-85
2023/03/25 11:18:37;;;;;;;6.57;1.48;;;9.90;99.90;;;;;;6244507;23;20035;-85
2023/03/25 11:21:34;;;;;;;5.35;1.30;;;9.80;99.90;;;;;;6249119;23;20028;-84
2023/03/25 11:24:26;;;;;;;6.28;1.20;;;9.70;98.70;;;;;;6244831;23;20411;-85
2023/03/25 11:27:27;;;;;;;5.07;1.25;;;9.20;49.70;;;;;;6244288;23;20106;-86
2023/03/25 11:30:20;;;;;;;3.00;1.10;;;8.80;99.90;;;;;;6245759;23;20119;-85
2023/03/25 11:33:16;;;;;;;5.80;1.20;;;8.40;99.90;;;;;;6244113;23;20095;-86
2023/03/25 11:36:45;;;;;;;3.85;1.40;;;7.90;1.00;;;;;;6244707;23;20024;-86
2023/03/25 11:39:38;;;;;;;3.10;0.90;;;8.70;99.90;;;;;;6166612;23;20020;-88
2023/03/25 11:42:39;;;;;;;4.07;1.25;;;9.80;1.00;;;;;;6223101;23;20031;-86
2023/03/25 11:45:38;;;;;;;2.92;0.98;;;10.00;99.90;;;;;;6244956;23;20324;-84
2023/03/25 11:48:30;;;;;;;4.93;1.33;;;10.90;99.90;;;;;;6245015;23;20566;-85
2023/03/25 11:51:31;;;;;;;1.30;0.90;;;11.10;77.40;;;;;;6258535;23;20024;-86
2023/03/25 11:54:18;;;;;;;1.55;1.15;;;11.00;1.00;;;;;;6245927;23;20427;-88
2023/03/25 11:57:12;;;;;;;1.67;0.90;;;11.60;1.00;;;;;;6246466;23;20028;-87
2023/03/25 12:00:25;;;;;;;1.85;0.90;;;12.10;1.00;;;;;;6245440;23;20390;-84
2023/03/25 12:03:12;;;;;;;3.08;1.27;;;12.30;99.90;;;;;;6244613;23;20328;-84
2023/03/25 12:06:15;;;;;;;5.53;2.35;;;11.80;99.90;;;;;;6246989;23;20466;-85
2023/03/25 12:09:11;;;;;;;3.05;0.90;;;11.60;99.90;;;;;;6223476;23;20293;-88
2023/03/25 12:12:02;;;;;;;3.72;1.08;;;11.30;99.90;;;;;;6246706;23;20043;-86
2023/03/25 12:15:14;;;;;;;1.42;0.80;;;10.60;99.90;;;;;;6226592;23;20372;-88
2023/03/25 12:18:33;;;;;;;5.07;1.20;;;12.00;99.90;;;;;;6245901;23;20420;-86
2023/03/25 12:21:27;;;;;;;2.65;0.90;;;11.70;99.90;;;;;;6247780;23;20024;-85
2023/03/25 12:24:40;;;;;;;3.47;1.25;;;11.60;99.90;;;;;;6245178;23;20035;-88
2023/03/25 12:28:07;;;;;;;1.25;0.90;;;12.00;99.90;;;;;;6245424;23;20032;-84
2023/03/25 12:31:16;;;;;;;4.40;1.10;;;11.50;99.90;;;;;;6187098;23;20034;-83
2023/03/25 12:34:13;;;;;;;3.78;0.95;;;10.90;99.90;;;;;;6248331;23;20043;-83
2023/03/25 12:37:28;;;;;;;1.75;0.90;;;10.70;99.90;;;;;;6226586;23;20348;-84
2023/03/25 12:40:35;;;;;;;1.92;1.00;;;10.70;99.90;;;;;;6232274;23;20039;-82
2023/03/25 12:43:33;;;;;;;3.47;0.90;;;10.40;99.90;;;;;;6245544;23;20099;-88
2023/03/25 12:46:53;;;;;;;2.53;0.90;;;9.80;99.90;;;;;;6246162;23;20028;-85
2023/03/25 12:50:01;;;;;;;2.08;1.00;;;9.50;99.90;;;;;;6247571;23;20048;-87
2023/03/25 12:52:53;;;;;;;3.55;1.15;;;9.20;99.90;;;;;;6246729;23;20024;-84
2023/03/25 12:55:51;;;;;;;2.83;1.10;;;9.00;1.00;;;;;;6245502;23;20037;-85
2023/03/25 12:59:10;;;;;;;2.10;1.02;;;9.10;1.00;;;;;;6247543;23;20027;-81
2023/03/25 13:02:03;;;;;;;0.80;0.80;;;9.20;1.00;;;;;;6245771;23;20032;-84
2023/03/25 13:05:22;;;;;;;1.30;0.90;;;10.50;1.00;;;;;;6247291;23;20024;-86
2023/03/25 13:08:18;;;;;;;2.47;0.90;;;11.60;1.00;;;;;;6246788;23;20051;-84
2023/03/25 13:11:21;;;;;;;4.35;1.70;;;11.80;99.90;;;;;;6245982;23;20424;-87
2023/03/25 13:14:22;;;;;;;1.25;0.90;;;12.70;99.90;;;;;;6259427;23;20028;-87
2023/03/25 13:17:27;;;;;;;0.63;0.63;;;11.90;99.90;;;;;;6245428;23;20043;-85
2023/03/25 13:20:16;;;;;;;2.28;1.40;;;10.40;99.90;;;;;;6247154;23;20024;-88
2023/03/25 13:23:11;;;;;;;2.90;1.20;;;9.60;99.90;;;;;;6227297;23;20020;-86
2023/03/25 13:26:15;;;;;;;1.55;1.20;;;9.00;99.90;;;;;;6249000;23;20016;-88
2023/03/25 13:29:29;;;;;;;2.25;1.17;;;9.00;1.00;;;;;;6247464;23;20024;-86
2023/03/25 13:32:46;;;;;;;3.78;1.02;;;10.40;1.00;;;;;;6245526;23;20031;-83
2023/03/25 13:36:00;;;;;;;2.60;1.10;;;11.90;1.00;;;;;;6227516;23;20098;-86
2023/03/25 13:38:56;;;;;;;2.85;0.95;;;12.50;99.90;;;;;;6250034;23;20043;-86
2023/03/25 13:41:48;;;;;;;3.70;1.17;;;13.50;99.90;;;;;;6247108;23;20442;-86
2023/03/25 13:44:40;;;;;;;2.17;1.00;;;13.10;99.90;;;;;;6245470;23;20031;-87
2023/03/25 13:47:38;;;;;;;4.20;1.02;;;13.50;99.90;;;;;;6224966;23;20153;-85
2023/03/25 13:50:31;;;;;;;2.60;1.05;;;14.60;99.90;;;;;;6245959;23;20024;-89
2023/03/25 13:53:31;;;;;;;3.78;1.20;;;15.10;99.90;;;;;;6246952;23;20043;-86
2023/03/25 13:56:33;;;;;;;2.58;1.10;;;15.10;99.90;;;;;;6247033;23;20028;-86
2023/03/25 13:59:55;;;;;;;2.30;1.05;;;15.40;99.90;;;;;;6245525;23;20453;-88
2023/03/25 14:02:55;;;;;;;1.95;0.90;;;14.50;99.90;;;;;;6234037;23;20047;-87
2023/03/25 14:05:55;;;;;;;6.15;1.40;;;13.30;99.90;;;;;;6248129;23;20057;-88
2023/03/25 14:09:08;;;;;;;2.55;1.10;;;12.00;99.90;;;;;;6247558;23;20020;-85
2023/03/25 14:12:31;;;;;;;4.10;0.90;;;11.60;99.90;;;;;;6224043;23;20455;-87
2023/03/25 14:15:33;;;;;;;5.05;1.40;;;11.20;99.90;;;;;;6198623;23;20441;-86
2023/03/25 14:18:24;;;;;;;2.63;1.00;;;10.90;99.90;;;;;;6244520;23;20028;-85
2023/03/25 14:21:22;;;;;;;2.47;0.93;;;12.20;99.90;;;;;;6245634;23;20419;-88
2023/03/25 14:24:09;;;;;;;2.55;0.95;;;13.80;99.90;;;;;;6249761;23;20031;-86
2023/03/25 14:27:01;;;;;;;2.17;0.73;;;13.60;99.90;;;;;;6248934;23;20055;-88
2023/03/25 14:30:00;;;;;;;1.10;0.90;;;14.10;99.90;;;;;;6246336;23;20023;-88
2023/03/25 14:32:52;;;;;;;5.15;1.20;;;14.30;99.90;;;;;;6247103;23;20036;-85
2023/03/25 14:35:47;;;;;;;6.50;2.92;;;14.00;99.90;;;;;;6246742;23;20028;-89
2023/03/25 14:38:52;;;;;;;4.00;1.00;;;13.80;99.90;;;;;;6245826;23;20024;-86
2023/03/25 14:42:06;;;;;;;3.10;0.70;;;14.70;99.90;;;;;;6244912;23;20039;-89
2023/03/25 14:45:14;;;;;;;2.13;1.23;;;15.30;99.90;;;;;;6248113;22;20020;-90
2023/03/25 14:48:21;;;;;;;4.80;1.00;;;14.90;99.90;;;;;;6249554;23;20424;-89
2023/03/25 14:51:18;;;;;;;2.65;1.00;;;14.00;95.20;;;;;;6252667;23;20035;-91
2023/03/25 14:54:36;;;;;;;5.53;1.38;;;13.80;92.10;;;;;;6248049;23;20328;-88
2023/03/25 14:57:31;;;;;;;3.05;0.98;;;14.00;92.40;;;;;;6244755;23;20074;-89
2023/03/25 15:00:43;;;;;;;1.83;0.80;;;14.30;90.00;;;;;;6245632;23;20308;-88
2023/03/25 15:03:43;;;;;;;3.97;1.13;;;14.60;74.70;;;;;;6247117;23;20020;-85
2023/03/25 15:06:33;;;;;;;3.08;1.08;;;14.30;68.20;;;;;;6227126;23;20034;-87
2023/03/25 15:09:21;;;;;;;2.85;1.15;;;13.00;64.00;;;;;;6243865;23;20101;-87
2023/03/25 15:12:17;;;;;;;4.15;1.10;;;12.00;73.20;;;;;;6245799;23;20411;-88
2023/03/25 15:15:31;;;;;;;3.22;0.77;;;13.30;86.00;;;;;;6246973;23;20028;-90
2023/03/25 15:18:34;;;;;;;1.85;0.70;;;13.70;83.00;;;;;;6245066;23;20024;-88
2023/03/25 15:21:24;;;;;;;3.97;0.93;;;12.90;76.70;;;;;;6246002;23;20039;-88
2023/03/25 15:24:15;;;;;;;1.63;0.70;;;12.90;77.70;;;;;;6245272;23;20482;-89
2023/03/25 15:27:39;;;;;;;0.60;0.60;;;13.20;78.50;;;;;;6244925;23;20126;-88